createdAt,value
2017-11-09T00:00:06.393Z,15.20
2017-11-09T00:02:32.997Z,18.15
2017-11-09T00:05:05.525Z,17.25
2017-11-09T00:07:32.050Z,16.17
2017-11-09T00:09:58.548Z,19.02
2017-11-09T00:12:25.015Z,18.00
2017-11-09T00:14:54.343Z,15.77
2017-11-09T00:17:20.881Z,17.90
2017-11-09T00:19:47.416Z,19.75
2017-11-09T00:22:13.953Z,16.92
2017-11-09T00:24:40.400Z,14.10
2017-11-09T00:27:06.908Z,15.20
2017-11-09T00:29:33.398Z,13.65
2017-11-09T00:31:59.921Z,16.67
2017-11-09T00:34:26.372Z,20.50
2017-11-09T00:36:52.828Z,17.02
2017-11-09T00:39:19.312Z,23.83
2017-11-09T00:41:45.759Z,20.92
2017-11-09T00:44:12.237Z,18.10
2017-11-09T00:46:38.676Z,17.27
2017-11-09T00:49:05.284Z,20.10
2017-11-09T00:51:31.735Z,16.27
2017-11-09T00:53:58.266Z,16.67
2017-11-09T00:56:24.757Z,16.87
2017-11-09T00:58:52.033Z,18.12
2017-11-09T01:01:18.504Z,19.33
2017-11-09T01:03:44.960Z,18.70
2017-11-09T01:06:11.424Z,15.30
2017-11-09T01:08:38.645Z,17.05
2017-11-09T01:11:05.124Z,18.58
2017-11-09T01:13:32.438Z,18.98
2017-11-09T01:15:58.916Z,24.83
2017-11-09T01:18:26.106Z,22.37
2017-11-09T01:20:52.554Z,21.42
2017-11-09T01:23:19.097Z,30.02
2017-11-09T01:25:45.574Z,26.55
2017-11-09T01:28:12.069Z,26.48
2017-11-09T01:30:38.581Z,26.98
2017-11-09T01:33:05.788Z,24.60
2017-11-09T01:35:39.221Z,25.52
2017-11-09T01:38:05.713Z,26.58
2017-11-09T01:40:32.385Z,34.53
2017-11-09T01:42:59.030Z,29.40
2017-11-09T01:45:25.504Z,31.73
2017-11-09T01:47:52.895Z,31.70
2017-11-09T01:50:19.409Z,30.33
2017-11-09T01:52:46.636Z,33.88
2017-11-09T01:55:13.134Z,34.35
2017-11-09T01:57:39.587Z,31.17
2017-11-09T02:00:06.061Z,34.63
2017-11-09T02:02:32.645Z,32.90
2017-11-09T02:04:59.109Z,41.70
2017-11-09T02:07:25.559Z,39.92
2017-11-09T02:09:52.050Z,42.20
2017-11-09T02:12:18.838Z,37.55
2017-11-09T02:14:45.257Z,39.60
2017-11-09T02:17:11.692Z,48.40
2017-11-09T02:19:38.156Z,41.35
2017-11-09T02:22:04.825Z,47.22
2017-11-09T02:24:31.297Z,41.50
2017-11-09T02:26:57.824Z,45.60
2017-11-09T02:29:24.348Z,41.95
2017-11-09T02:31:50.791Z,45.60
2017-11-09T02:34:17.326Z,44.65
2017-11-09T02:36:43.819Z,41.95
2017-11-09T02:39:10.306Z,30.75
2017-11-09T02:41:38.226Z,44.00
2017-11-09T02:44:04.740Z,39.05
2017-11-09T02:46:32.006Z,45.33
2017-11-09T02:48:58.467Z,31.50
2017-11-09T02:51:24.931Z,42.90
2017-11-09T02:53:51.436Z,36.80
2017-11-09T02:56:17.857Z,43.70
2017-11-09T02:58:45.057Z,40.33
2017-11-09T03:01:11.513Z,37.97
2017-11-09T03:03:38.729Z,33.33
2017-11-09T03:06:05.228Z,38.00
2017-11-09T03:08:32.476Z,42.55
2017-11-09T03:10:58.960Z,36.83
2017-11-09T03:13:25.419Z,43.50
2017-11-09T03:15:51.849Z,40.00
2017-11-09T03:18:18.307Z,38.13
2017-11-09T03:20:44.733Z,37.90
2017-11-09T03:23:11.194Z,42.75
2017-11-09T03:25:37.640Z,37.92
2017-11-09T03:28:04.096Z,35.17
2017-11-09T03:30:31.310Z,37.50
2017-11-09T03:32:57.765Z,40.38
2017-11-09T03:35:24.216Z,38.15
2017-11-09T03:37:50.649Z,42.45
2017-11-09T03:40:17.133Z,35.60
2017-11-09T03:42:43.613Z,38.92
2017-11-09T03:45:10.032Z,39.13
2017-11-09T03:47:36.531Z,36.08
2017-11-09T03:50:03.734Z,31.40
2017-11-09T03:52:30.158Z,32.20
2017-11-09T03:54:56.628Z,37.05
2017-11-09T03:57:23.080Z,34.65
2017-11-09T03:59:49.507Z,38.42
2017-11-09T04:02:16.005Z,33.00
2017-11-09T04:04:42.457Z,35.10
2017-11-09T04:07:09.459Z,31.15
2017-11-09T04:09:35.901Z,33.20
2017-11-09T04:12:02.345Z,31.35
2017-11-09T04:14:29.569Z,27.25
2017-11-09T04:16:56.013Z,34.25
2017-11-09T04:19:22.469Z,32.88
2017-11-09T04:21:48.911Z,34.80
2017-11-09T04:24:15.370Z,32.65
2017-11-09T04:26:42.552Z,33.35
2017-11-09T04:29:09.058Z,28.90
2017-11-09T04:31:36.237Z,37.03
2017-11-09T04:34:02.703Z,35.85
2017-11-09T04:36:29.236Z,40.90
2017-11-09T04:38:55.675Z,39.78
2017-11-09T04:41:22.137Z,43.22
2017-11-09T04:43:48.581Z,37.00
2017-11-09T04:46:15.245Z,41.40
2017-11-09T04:48:41.692Z,34.47
2017-11-09T04:51:08.959Z,36.20
2017-11-09T04:53:36.165Z,33.20
2017-11-09T04:56:03.501Z,35.85
2017-11-09T04:58:29.939Z,36.58
2017-11-09T05:00:56.433Z,28.27
2017-11-09T05:03:22.877Z,41.28
2017-11-09T05:05:50.053Z,39.75
2017-11-09T05:08:17.389Z,43.87
2017-11-09T05:10:44.615Z,45.15
2017-11-09T05:13:11.119Z,39.85
2017-11-09T05:15:37.548Z,43.10
2017-11-09T05:18:04.819Z,40.95
2017-11-09T05:20:31.358Z,39.45
2017-11-09T05:22:57.780Z,33.55
2017-11-09T05:25:25.110Z,37.80
2017-11-09T05:27:51.544Z,39.90
2017-11-09T05:30:18.017Z,38.05
2017-11-09T05:32:45.201Z,38.08
2017-11-09T05:35:11.666Z,40.63
2017-11-09T05:37:38.090Z,48.78
2017-11-09T05:40:04.529Z,37.10
2017-11-09T05:42:31.097Z,40.10
2017-11-09T05:44:57.569Z,36.97
2017-11-09T05:47:24.787Z,41.42
2017-11-09T05:49:51.249Z,45.03
2017-11-09T05:52:18.447Z,38.83
2017-11-09T05:54:45.074Z,35.95
2017-11-09T05:57:11.589Z,38.80
2017-11-09T05:59:38.820Z,45.53
2017-11-09T06:02:05.304Z,48.58
2017-11-09T06:04:32.508Z,40.53
2017-11-09T06:06:59.181Z,41.97
2017-11-09T06:09:26.438Z,50.33
2017-11-09T06:11:52.984Z,43.40
2017-11-09T06:14:20.285Z,37.85
2017-11-09T06:16:46.776Z,42.78
2017-11-09T06:19:13.251Z,32.75
2017-11-09T06:21:39.725Z,35.40
2017-11-09T06:24:06.163Z,38.92
2017-11-09T06:26:32.837Z,41.15
2017-11-09T06:28:59.430Z,44.35
2017-11-09T06:31:25.927Z,38.78
2017-11-09T06:33:53.179Z,35.00
2017-11-09T06:36:20.381Z,38.97
2017-11-09T06:38:46.818Z,36.63
2017-11-09T06:41:13.265Z,39.08
2017-11-09T06:43:39.683Z,36.78
2017-11-09T06:46:06.149Z,36.90
2017-11-09T06:48:32.799Z,37.20
2017-11-09T06:50:59.296Z,39.25
2017-11-09T06:53:25.764Z,35.20
2017-11-09T06:55:52.184Z,27.67
2017-11-09T06:58:18.687Z,34.88
2017-11-09T07:00:45.171Z,38.20
2017-11-09T07:03:11.733Z,37.28
2017-11-09T07:05:38.268Z,30.48
2017-11-09T07:08:04.815Z,35.30
2017-11-09T07:10:32.344Z,36.03
2017-11-09T07:12:58.805Z,39.05
2017-11-09T07:15:25.266Z,36.25
2017-11-09T07:17:51.887Z,44.10
2017-11-09T07:20:18.391Z,32.95
2017-11-09T07:22:44.866Z,41.35
2017-11-09T07:25:11.305Z,45.20
2017-11-09T07:27:37.764Z,51.45
2017-11-09T07:30:04.204Z,43.50
2017-11-09T07:32:30.725Z,37.38
2017-11-09T07:34:57.218Z,37.85
2017-11-09T07:37:24.401Z,45.05
2017-11-09T07:39:51.017Z,47.55
2017-11-09T07:42:18.195Z,41.97
2017-11-09T07:44:44.687Z,50.70
2017-11-09T07:47:11.189Z,51.00
2017-11-09T07:49:37.625Z,42.35
2017-11-09T07:52:04.089Z,29.98
2017-11-09T07:54:30.553Z,47.38
2017-11-09T07:56:57.014Z,40.45
2017-11-09T07:59:24.299Z,38.88
2017-11-09T08:01:50.738Z,39.70
2017-11-09T08:04:17.220Z,36.95
2017-11-09T08:06:43.669Z,41.03
2017-11-09T08:09:10.153Z,40.65
2017-11-09T08:11:36.621Z,30.73
2017-11-09T08:14:03.098Z,32.60
2017-11-09T08:16:30.284Z,45.33
2017-11-09T08:18:56.748Z,43.38
2017-11-09T08:21:23.263Z,32.63
2017-11-09T08:23:49.721Z,29.83
2017-11-09T08:26:19.215Z,36.88
2017-11-09T08:28:51.325Z,29.48
2017-11-09T08:31:19.041Z,37.03
2017-11-09T08:33:45.524Z,28.90
2017-11-09T08:36:11.973Z,26.10
2017-11-09T08:38:38.428Z,27.90
2017-11-09T08:41:05.602Z,23.67
2017-11-09T08:43:32.824Z,26.70
2017-11-09T08:45:59.249Z,21.00
2017-11-09T08:48:25.701Z,20.05
2017-11-09T08:50:52.185Z,23.67
2017-11-09T08:53:18.625Z,22.95
2017-11-09T08:55:45.185Z,20.37
2017-11-09T08:58:11.605Z,23.10
2017-11-09T09:00:38.046Z,23.30
2017-11-09T09:03:04.506Z,21.87
2017-11-09T09:05:31.170Z,20.00
2017-11-09T09:07:57.877Z,25.88
2017-11-09T09:10:24.331Z,25.77
2017-11-09T09:12:50.963Z,21.48
2017-11-09T09:15:17.428Z,31.77
2017-11-09T09:17:43.919Z,21.00
2017-11-09T09:20:10.349Z,30.90
2017-11-09T09:22:39.424Z,24.37
2017-11-09T09:25:13.958Z,27.75
2017-11-09T09:27:40.541Z,24.75
2017-11-09T09:30:07.897Z,26.40
2017-11-09T09:32:36.463Z,25.62
2017-11-09T09:35:12.262Z,28.60
2017-11-09T09:37:43.756Z,28.67
2017-11-09T09:40:12.753Z,26.73
2017-11-09T09:42:39.929Z,25.60
2017-11-09T09:45:06.389Z,27.73
2017-11-09T09:47:32.896Z,30.23
2017-11-09T09:50:00.225Z,27.50
2017-11-09T09:52:26.741Z,27.73
2017-11-09T09:54:53.268Z,28.90
2017-11-09T09:57:19.741Z,27.85
2017-11-09T09:59:46.189Z,23.58
2017-11-09T10:02:13.418Z,30.30
2017-11-09T10:04:39.870Z,28.52
2017-11-09T10:07:06.448Z,25.55
2017-11-09T10:09:33.982Z,28.85
2017-11-09T10:12:00.430Z,26.48
2017-11-09T10:14:26.878Z,27.70
2017-11-09T10:16:53.366Z,28.45
2017-11-09T10:19:19.856Z,22.62
2017-11-09T10:21:46.343Z,21.87
2017-11-09T10:24:12.849Z,23.85
2017-11-09T10:26:40.059Z,18.90
2017-11-09T10:29:06.602Z,17.83
2017-11-09T10:31:33.128Z,18.37
2017-11-09T10:34:02.433Z,18.27
2017-11-09T10:36:28.934Z,16.00
2017-11-09T10:38:56.322Z,16.27
2017-11-09T10:41:23.727Z,15.83
2017-11-09T10:43:50.248Z,17.27
2017-11-09T10:46:16.734Z,20.60
2017-11-09T10:48:44.010Z,20.17
2017-11-09T10:51:10.724Z,21.55
2017-11-09T10:53:37.904Z,20.35
2017-11-09T10:56:04.424Z,23.40
2017-11-09T10:58:31.677Z,16.52
2017-11-09T11:00:58.918Z,19.55
2017-11-09T11:03:25.475Z,16.05
2017-11-09T11:05:52.661Z,17.95
2017-11-09T11:08:19.578Z,19.10
2017-11-09T11:10:52.596Z,16.48
2017-11-09T11:13:19.107Z,24.00
2017-11-09T11:15:46.990Z,26.00
2017-11-09T11:18:14.393Z,26.55
2017-11-09T11:20:40.961Z,23.10
2017-11-09T11:23:07.526Z,25.60
2017-11-09T11:25:34.725Z,27.67
2017-11-09T11:28:01.163Z,42.15
2017-11-09T11:30:27.634Z,29.55
2017-11-09T11:32:54.109Z,23.80
2017-11-09T11:35:21.312Z,23.42
2017-11-09T11:37:47.825Z,27.65
2017-11-09T11:40:14.389Z,28.33
2017-11-09T11:42:40.834Z,25.60
2017-11-09T11:45:07.312Z,27.85
2017-11-09T11:47:34.574Z,26.95
2017-11-09T11:50:01.753Z,24.17
2017-11-09T11:52:28.240Z,23.42
2017-11-09T11:54:54.707Z,25.62
2017-11-09T11:57:21.934Z,21.87
2017-11-09T11:59:48.511Z,24.83
2017-11-09T12:02:16.636Z,22.42
2017-11-09T12:04:43.235Z,22.35
2017-11-09T12:07:10.505Z,24.90
2017-11-09T12:09:37.047Z,24.87
2017-11-09T12:12:03.593Z,30.23
2017-11-09T12:14:30.079Z,27.15
2017-11-09T12:16:56.614Z,25.27
2017-11-09T12:19:23.101Z,30.00
2017-11-09T12:21:49.556Z,30.83
2017-11-09T12:24:16.033Z,28.38
2017-11-09T12:26:42.508Z,31.85
2017-11-09T12:29:13.648Z,28.45
2017-11-09T12:31:41.003Z,30.05
2017-11-09T12:34:08.189Z,30.55
2017-11-09T12:36:34.673Z,31.33
2017-11-09T12:39:01.121Z,29.40
2017-11-09T12:41:28.337Z,29.10
2017-11-09T12:43:54.873Z,28.40
2017-11-09T12:46:21.351Z,28.48
2017-11-09T12:48:47.835Z,26.17
2017-11-09T12:51:14.291Z,25.35
2017-11-09T12:53:40.737Z,27.33
2017-11-09T12:56:07.258Z,24.77
2017-11-09T12:58:33.754Z,26.58
2017-11-09T13:01:00.192Z,23.45
2017-11-09T13:03:26.617Z,26.00
2017-11-09T13:05:53.105Z,27.67
2017-11-09T13:08:20.316Z,27.95
2017-11-09T13:10:46.832Z,28.38
2017-11-09T13:13:13.395Z,26.95
2017-11-09T13:15:39.931Z,27.27
2017-11-09T13:18:13.357Z,29.90
2017-11-09T13:20:39.900Z,30.20
2017-11-09T13:23:06.369Z,28.75
2017-11-09T13:25:32.835Z,30.85
2017-11-09T13:27:59.371Z,28.73
2017-11-09T13:30:25.813Z,30.80
2017-11-09T13:32:52.306Z,25.75
2017-11-09T13:35:19.691Z,32.97
2017-11-09T13:37:46.245Z,29.20
2017-11-09T13:40:12.885Z,29.12
2017-11-09T13:42:39.393Z,27.70
2017-11-09T13:45:06.604Z,25.20
2017-11-09T13:47:33.107Z,28.62
2017-11-09T13:49:59.561Z,26.05
2017-11-09T13:52:26.012Z,30.05
2017-11-09T13:54:54.310Z,25.55
2017-11-09T13:57:20.806Z,25.62
2017-11-09T13:59:47.297Z,28.90
2017-11-09T14:02:13.785Z,27.10
2017-11-09T14:04:40.265Z,25.00
2017-11-09T14:07:06.774Z,24.30
2017-11-09T14:09:33.277Z,21.70
2017-11-09T14:11:59.789Z,23.02
2017-11-09T14:14:26.264Z,22.98
2017-11-09T14:16:53.560Z,23.95
2017-11-09T14:19:20.085Z,29.90
2017-11-09T14:21:46.645Z,26.00
2017-11-09T14:24:13.108Z,23.75
2017-11-09T14:26:39.671Z,30.80
2017-11-09T14:29:06.168Z,28.87
2017-11-09T14:31:32.686Z,30.50
2017-11-09T14:33:59.189Z,24.87
2017-11-09T14:36:25.821Z,23.80
2017-11-09T14:38:52.331Z,24.30
2017-11-09T14:41:18.825Z,24.40
2017-11-09T14:43:46.062Z,24.05
2017-11-09T14:46:13.393Z,22.70
2017-11-09T14:48:39.876Z,23.73
2017-11-09T14:51:07.089Z,23.55
2017-11-09T14:53:33.603Z,21.87
2017-11-09T14:56:00.085Z,24.27
2017-11-09T14:58:26.653Z,20.55
2017-11-09T15:00:53.295Z,28.20
2017-11-09T15:03:19.791Z,24.42
2017-11-09T15:05:46.296Z,24.45
2017-11-09T15:08:12.881Z,24.20
2017-11-09T15:10:39.398Z,24.87
2017-11-09T15:13:05.849Z,24.95
2017-11-09T15:15:32.317Z,24.45
2017-11-09T15:17:58.786Z,25.73
2017-11-09T15:20:26.006Z,42.33
2017-11-09T15:22:52.580Z,30.62
2017-11-09T15:25:26.907Z,97.97
2017-11-09T15:27:54.156Z,35.33
2017-11-09T15:30:21.493Z,25.50
2017-11-09T15:32:49.873Z,25.80
2017-11-09T15:35:16.386Z,28.65
2017-11-09T15:37:42.854Z,27.17
2017-11-09T15:40:10.081Z,27.48
2017-11-09T15:42:36.564Z,27.83
2017-11-09T15:45:03.049Z,26.42
2017-11-09T15:47:29.638Z,27.45
2017-11-09T15:49:56.097Z,30.83
2017-11-09T15:52:23.324Z,25.67
2017-11-09T15:54:49.886Z,24.73
2017-11-09T15:57:16.428Z,25.35
2017-11-09T15:59:42.918Z,29.37
2017-11-09T16:02:09.449Z,29.33
2017-11-09T16:04:35.974Z,26.12
2017-11-09T16:07:02.468Z,28.55
2017-11-09T16:09:29.001Z,23.05
2017-11-09T16:11:55.613Z,27.73
2017-11-09T16:14:22.201Z,26.08
2017-11-09T16:16:48.902Z,25.95
2017-11-09T16:19:15.368Z,28.30
2017-11-09T16:21:41.951Z,29.20
2017-11-09T16:24:09.184Z,28.55
2017-11-09T16:26:36.520Z,29.10
2017-11-09T16:29:06.088Z,27.98
2017-11-09T16:31:32.601Z,28.00
2017-11-09T16:33:59.162Z,26.30
2017-11-09T16:36:33.288Z,30.20
2017-11-09T16:38:59.873Z,31.33
2017-11-09T16:41:26.356Z,29.37
2017-11-09T16:43:53.648Z,34.60
2017-11-09T16:46:20.136Z,39.88
2017-11-09T16:48:46.656Z,30.58
2017-11-09T16:51:13.278Z,34.90
2017-11-09T16:53:39.742Z,69.78
2017-11-09T16:56:06.252Z,84.72
2017-11-09T16:58:32.898Z,73.97
2017-11-09T17:00:59.425Z,65.72
2017-11-09T17:03:25.949Z,72.07
2017-11-09T17:05:52.453Z,42.75
2017-11-09T17:08:20.107Z,33.65
2017-11-09T17:10:47.944Z,30.52
2017-11-09T17:13:14.495Z,30.80
2017-11-09T17:15:41.024Z,30.45
2017-11-09T17:18:13.623Z,25.77
2017-11-09T17:20:40.085Z,28.30
2017-11-09T17:23:06.609Z,29.77
2017-11-09T17:25:33.127Z,29.33
2017-11-09T17:27:59.709Z,28.23
2017-11-09T17:30:26.220Z,34.15
2017-11-09T17:32:52.767Z,28.05
2017-11-09T17:35:19.333Z,37.17
2017-11-09T17:37:45.836Z,34.15
2017-11-09T17:40:17.857Z,29.95
2017-11-09T17:42:50.093Z,28.60
2017-11-09T17:45:16.670Z,32.00
2017-11-09T17:47:44.071Z,32.72
2017-11-09T17:50:10.591Z,32.13
2017-11-09T17:52:37.079Z,27.42
2017-11-09T17:55:03.561Z,30.62
2017-11-09T17:57:30.812Z,29.40
2017-11-09T18:00:01.924Z,27.17
2017-11-09T18:02:28.540Z,32.92
2017-11-09T18:04:55.400Z,30.67
2017-11-09T18:07:22.013Z,30.05
2017-11-09T18:09:48.528Z,27.83
2017-11-09T18:12:17.748Z,28.75
2017-11-09T18:14:45.776Z,29.98
2017-11-09T18:17:12.362Z,28.27
2017-11-09T18:19:39.004Z,25.48
2017-11-09T18:22:05.635Z,24.63
2017-11-09T18:24:32.890Z,35.90
2017-11-09T18:27:00.141Z,30.00
2017-11-09T18:29:27.352Z,31.85
2017-11-09T18:31:53.957Z,30.20
2017-11-09T18:34:21.323Z,29.77
2017-11-09T18:36:47.949Z,28.38
2017-11-09T18:39:15.214Z,28.15
2017-11-09T18:41:42.539Z,40.70
2017-11-09T18:44:09.349Z,40.63
2017-11-09T18:46:35.796Z,55.40
2017-11-09T18:49:02.358Z,38.88
2017-11-09T18:51:28.840Z,31.75
2017-11-09T18:53:56.078Z,36.20
2017-11-09T18:56:22.692Z,37.83
2017-11-09T18:58:49.186Z,33.08
2017-11-09T19:01:15.787Z,35.10
2017-11-09T19:03:43.108Z,34.10
2017-11-09T19:06:09.774Z,31.02
2017-11-09T19:08:37.233Z,35.08
2017-11-09T19:11:05.504Z,24.50
2017-11-09T19:13:32.152Z,22.95
2017-11-09T19:15:58.704Z,22.83
2017-11-09T19:18:25.231Z,23.92
2017-11-09T19:20:51.721Z,21.75
2017-11-09T19:23:18.290Z,29.80
2017-11-09T19:25:44.800Z,21.90
2017-11-09T19:28:12.061Z,22.67
2017-11-09T19:30:39.408Z,22.73
2017-11-09T19:46:11.582Z,21.65
2017-11-09T19:48:39.101Z,24.30
2017-11-09T19:51:05.779Z,27.17
2017-11-09T19:53:33.029Z,26.62
2017-11-09T19:56:01.070Z,24.92
2017-11-09T20:08:17.639Z,33.25
2017-11-09T20:20:35.120Z,32.40
2017-11-09T20:23:02.428Z,31.42
2017-11-09T20:25:29.141Z,36.33
2017-11-09T20:27:55.660Z,34.95
2017-11-09T20:30:22.980Z,33.92
2017-11-09T20:32:49.506Z,37.50
2017-11-09T20:35:16.081Z,39.05
2017-11-09T20:37:42.730Z,38.83
2017-11-09T20:40:10.062Z,42.60
2017-11-09T20:42:36.570Z,80.10
2017-11-09T20:45:04.239Z,36.28
2017-11-09T20:47:30.875Z,30.23
2017-11-09T20:49:57.530Z,29.92
2017-11-09T20:52:24.096Z,34.03
2017-11-09T20:54:50.575Z,34.90
2017-11-09T20:57:17.810Z,25.10
2017-11-09T20:59:44.344Z,22.35
2017-11-09T21:02:10.847Z,27.83
2017-11-09T21:04:37.430Z,23.80
2017-11-09T21:07:04.004Z,27.73
2017-11-09T21:09:31.323Z,29.23
2017-11-09T21:11:58.644Z,25.77
2017-11-09T21:14:25.283Z,24.95
2017-11-09T21:16:51.837Z,24.20
2017-11-09T21:19:18.414Z,25.17
2017-11-09T21:21:45.863Z,24.33
2017-11-09T21:24:12.370Z,22.02
2017-11-09T21:26:38.888Z,28.80
2017-11-09T21:38:50.543Z,19.85
2017-11-09T21:41:17.818Z,24.83
2017-11-09T21:43:45.799Z,25.70
2017-11-09T21:46:13.143Z,23.65
2017-11-09T21:48:54.585Z,27.08
2017-11-09T21:51:21.135Z,22.95
2017-11-09T21:53:47.636Z,23.80
2017-11-09T21:56:14.264Z,25.15
2017-11-09T21:58:41.501Z,22.70
2017-11-09T22:01:07.987Z,25.30
2017-11-09T22:03:34.728Z,26.45
2017-11-09T22:06:01.255Z,27.20
2017-11-09T22:08:27.880Z,26.15
2017-11-09T22:10:55.093Z,26.58
2017-11-09T22:13:21.631Z,23.40
2017-11-09T22:15:48.086Z,21.87
2017-11-09T22:18:14.533Z,25.37
2017-11-09T22:20:44.109Z,18.35
2017-11-09T22:23:10.566Z,17.05
2017-11-09T22:25:37.087Z,15.82
2017-11-09T22:28:03.541Z,19.37
2017-11-09T22:30:30.021Z,23.40
2017-11-09T22:32:57.227Z,25.70
2017-11-09T22:35:23.808Z,22.75
2017-11-09T22:37:50.257Z,22.75
2017-11-09T22:40:17.556Z,25.02
2017-11-09T22:42:44.066Z,21.10
2017-11-09T22:45:11.321Z,19.52
2017-11-09T22:47:38.633Z,20.33
2017-11-09T22:50:05.123Z,23.98
2017-11-09T22:52:32.409Z,22.77
2017-11-09T22:54:58.886Z,23.80
2017-11-09T22:57:26.931Z,21.60
2017-11-09T22:59:53.476Z,19.70
2017-11-09T23:02:19.977Z,20.92
2017-11-09T23:04:47.261Z,21.87
2017-11-09T23:07:13.752Z,20.48
2017-11-09T23:09:40.301Z,18.45
2017-11-09T23:12:07.616Z,18.80
2017-11-09T23:14:34.088Z,21.80
2017-11-09T23:17:00.571Z,19.85
2017-11-09T23:19:27.231Z,15.63
2017-11-09T23:21:53.701Z,15.55
2017-11-09T23:24:20.224Z,19.37
2017-11-09T23:26:46.728Z,16.67
2017-11-09T23:29:13.390Z,18.27
2017-11-09T23:31:39.843Z,16.05
2017-11-09T23:34:06.331Z,16.62
2017-11-09T23:36:33.687Z,16.37
2017-11-09T23:39:00.855Z,18.42
2017-11-09T23:41:28.108Z,16.52
2017-11-09T23:43:55.493Z,19.27
2017-11-09T23:46:21.993Z,15.43
2017-11-09T23:48:48.453Z,16.52
2017-11-09T23:51:15.697Z,16.37
2017-11-09T23:53:43.098Z,16.30
2017-11-09T23:56:09.580Z,15.38
2017-11-09T23:58:36.029Z,18.12
